Latest Coastal Weather Observations for Mandurah

IDW60701

Issued at 3:11 am WST Thursday 5 May 2016 (issued every 10 minutes, with the page automatically refreshed every 10 minutes)

About coastal observations | Map of coastal stations | Coastal observations for WA | Marine services | Other Formats
Station Details ID: 009977 Name: MANDURAH Lat: -32.52 Lon: 115.71 Height: 3.0 m
Data from the previous 72 hours. | See also: Recent months at Mandurah
Date/Time
WST
Temp

°C
Wind Pressure Rain
since 9am
mm
Weather Cloud Vis
km
Sea
Height
m
Swell
Dir
 
Speed
knots
Gust
knots
hPa Trend Height
m
Period
s
Dir
05/03:00am 17.5 SSW 5 7 1014.7 - 0.4 - - - - - - -
05/02:30am 17.7 SSW 5 8 1014.8 - 0.4 - - - - - - -
05/02:00am 17.8 SW 6 9 1014.8 - 0.4 - - - - - - -
05/01:30am 17.6 SSW 4 6 1014.7 - 0.4 - - - - - - -
05/01:00am 17.8 SSW 4 6 1014.9 - 0.4 - - - - - - -
05/12:30am 18.1 SW 5 9 1015.1 - 0.4 - - - - - - -
05/12:00am 17.8 SW 3 5 1015.1 - 0.4 - - - - - - -
 
Date/Time
WST
Temp

°C
Wind Pressure Rain
since 9am
mm
Weather Cloud Vis
km
Sea
Height
m
Swell
Dir
 
Speed
knots
Gust
knots
hPa Trend Height
m
Period
s
Dir
04/11:30pm 18.4 SW 8 11 1015.3 - 0.4 - - - - - - -
04/11:00pm 18.0 SSW 4 6 1015.3 - 0.4 - - - - - - -
04/10:30pm 17.8 SSW 5 7 1015.4 - 0.4 - - - - - - -
04/10:00pm 17.9 SW 6 9 1015.3 - 0.4 - - - - - - -
04/09:30pm 18.1 SW 7 10 1015.3 - 0.4 - - - - - - -
04/09:00pm 18.3 SSW 6 11 1015.4 - 0.4 - - - - - - -
04/08:30pm 17.9 SSW 5 9 1015.3 - 0.4 - - - - - - -
04/08:00pm 17.6 WSW 3 4 1015.3 - 0.4 - - - - - - -
04/07:30pm 18.3 WSW 3 4 1015.3 - 0.0 - - - - - - -
04/07:00pm 18.2 WSW 4 7 1015.1 - 0.0 - - - - - - -
04/06:30pm 18.6 WSW 5 10 1014.7 - 0.0 - - - - - - -
04/06:00pm 17.8 WSW 1 4 1014.3 - 0.0 - - - - - - -
04/05:30pm 18.4 WSW 3 4 1014.3 - 0.0 - - - - - - -
04/05:00pm 18.9 WSW 3 6 1014.4 - 0.0 - - - - - - -
04/04:30pm 19.0 WSW 5 7 1014.6 - 0.0 - - - - - - -
04/04:00pm 19.3 SW 8 13 1014.6 - 0.0 - - - - - - -
04/03:30pm 20.3 WSW 7 10 1014.5 - 0.0 - - - - - - -
04/03:00pm 20.7 WSW 7 10 1014.7 - 0.0 - - - - - - -
04/02:30pm 20.8 WSW 7 10 1014.6 - 0.0 - - - - - - -
04/02:00pm 21.2 WSW 6 9 1014.7 - 0.0 - - - - - - -
04/01:30pm 20.4 W 8 11 1015.1 - 0.0 - - - - - - -
04/01:00pm 20.6 W 7 10 1015.5 - 0.0 - - - - - - -
04/12:30pm 20.7 W 8 11 1015.9 - 0.0 - - - - - - -
04/12:00pm 20.8 W 6 10 1016.2 - 0.0 - - - - - - -
04/11:30am 20.4 WNW 5 6 1016.5 - 0.0 - - - - - - -
04/11:00am 20.8 WSW 3 8 1017.0 - 0.0 - - - - - - -
04/10:30am 19.8 NE 1 3 1017.3 - 0.0 - - - - - - -
04/10:00am 18.4 NNE 4 4 1017.6 - 0.0 - - - - - - -
04/09:30am 17.7 NNE 4 5 1017.7 - 0.0 - - - - - - -
04/09:00am 17.0 NNE 5 6 1017.8 - 0.0 - - - - - - -
04/08:30am 16.6 NNE 4 6 1017.8 - 0.0 - - - - - - -
04/08:00am 16.1 CALM 0 0 1017.8 - 0.0 - - - - - - -
04/07:30am 15.8 NE 2 3 1017.6 - 0.0 - - - - - - -
04/07:00am 16.4 NNE 3 4 1017.4 - 0.0 - - - - - - -
04/06:30am 16.5 N 5 6 1017.3 - 0.0 - - - - - - -
04/06:00am 16.0 E 4 5 1017.2 - 0.0 - - - - - - -
04/05:30am 15.8 S 3 4 1017.3 - 0.0 - - - - - - -
04/05:00am 15.7 S 2 3 1017.3 - 0.0 - - - - - - -
04/04:30am 15.7 S 1 3 1017.4 - 0.0 - - - - - - -
04/04:00am 15.4 CALM 0 1 1017.4 - 0.0 - - - - - - -
04/03:30am 15.5 S 1 3 1017.5 - 0.0 - - - - - - -
04/03:00am 15.0 S 2 4 1017.7 - 0.0 - - - - - - -
04/02:30am 14.2 S 2 3 1017.9 - 0.0 - - - - - - -
04/02:00am 14.3 S 2 3 1018.3 - 0.0 - - - - - - -
04/01:30am 14.4 S 2 3 1018.5 - 0.0 - - - - - - -
04/01:00am 15.1 CALM 0 0 1018.7 - 0.0 - - - - - - -
04/12:30am 15.2 CALM 0 0 1018.9 - 0.0 - - - - - - -
04/12:00am 15.7 CALM 0 1 1019.1 - 0.0 - - - - - - -
 
Date/Time
WST
Temp

°C
Wind Pressure Rain
since 9am
mm
Weather Cloud Vis
km
Sea
Height
m
Swell
Dir
 
Speed
knots
Gust
knots
hPa Trend Height
m
Period
s
Dir
03/11:30pm 15.9 CALM 0 0 1019.3 - 0.0 - - - - - - -
03/11:00pm 15.7 S 1 1 1019.4 - 0.0 - - - - - - -
03/10:30pm 16.0 S 1 2 1019.6 - 0.0 - - - - - - -
03/10:00pm 15.9 S 2 3 1019.9 - 0.0 - - - - - - -
03/09:30pm 16.2 S 3 3 1019.8 - 0.0 - - - - - - -
03/09:00pm 17.0 SW 2 3 1020.0 - 0.0 - - - - - - -
03/08:30pm 17.2 SW 3 5 1019.9 - 0.0 - - - - - - -
03/08:00pm 17.2 SW 3 5 1019.8 - 0.0 - - - - - - -
03/07:30pm 17.3 SW 4 7 1019.7 - 0.0 - - - - - - -
03/07:00pm 17.5 SW 3 4 1019.8 - 0.0 - - - - - - -
03/06:30pm 17.2 CALM 0 0 1019.6 - 0.0 - - - - - - -
03/06:00pm 17.8 S 2 3 1019.5 - 0.0 - - - - - - -
03/05:30pm 18.5 SSW 5 6 1019.5 - 0.0 - - - - - - -
03/05:00pm 19.0 SW 6 9 1019.4 - 0.0 - - - - - - -
03/04:30pm 19.3 WSW 6 9 1019.4 - 0.0 - - - - - - -
03/04:00pm 19.5 WSW 7 10 1019.5 - 0.0 - - - - - - -
03/03:30pm 19.7 WSW 7 11 1019.5 - 0.0 - - - - - - -
03/03:00pm 20.1 W 7 11 1019.7 - 0.0 - - - - - - -
03/02:30pm 20.4 WSW 5 7 1019.8 - 0.0 - - - - - - -
03/02:00pm 20.1 WSW 6 8 1019.9 - 0.0 - - - - - - -
03/01:30pm 20.4 SSW 3 6 1020.3 - 0.0 - - - - - - -
03/01:00pm 20.4 SE 4 7 1020.5 - 0.0 - - - - - - -
03/12:30pm 20.1 SSE 4 7 1020.8 - 0.0 - - - - - - -
03/12:00pm 20.0 SSE 3 7 1021.2 - 0.0 - - - - - - -
03/11:30am 19.4 SE 4 7 1021.6 - 0.0 - - - - - - -
03/11:00am 18.4 SSE 5 7 1021.9 - 0.0 - - - - - - -
03/10:30am 18.2 SSE 5 8 1022.2 - 0.0 - - - - - - -
03/10:00am 17.9 SE 5 7 1022.3 - 0.0 - - - - - - -
03/09:30am 17.1 SE 4 6 1022.3 - 0.0 - - - - - - -
03/09:00am 16.2 SE 4 7 1022.2 - 0.0 - - - - - - -
03/08:30am 15.7 SE 3 4 1022.3 - 0.0 - - - - - - -
03/08:00am 15.0 CALM 0 0 1021.8 - 0.0 - - - - - - -
03/07:30am 14.7 CALM 0 0 1021.5 - 0.0 - - - - - - -
03/07:00am 14.5 ESE 1 3 1021.3 - 0.0 - - - - - - -
03/06:30am 14.0 SE 1 2 1021.1 - 0.0 - - - - - - -
03/06:00am 13.2 CALM 0 0 1021.0 - 0.0 - - - - - - -
03/05:30am 12.9 SE 1 2 1021.0 - 0.0 - - - - - - -
03/05:00am 13.3 CALM 0 0 1020.8 - 0.0 - - - - - - -
03/04:30am 13.6 SE 1 3 1020.6 - 0.0 - - - - - - -
03/04:00am 13.8 CALM 0 1 1020.5 - 0.0 - - - - - - -
03/03:30am 14.6 SE 2 3 1020.6 - 0.0 - - - - - - -
03/03:00am 15.2 SE 3 4 1020.8 - 0.0 - - - - - - -
03/02:30am 15.4 SSE 3 4 1021.1 - 0.0 - - - - - - -
03/02:00am 15.6 SSE 4 6 1021.1 - 0.0 - - - - - - -
03/01:30am 15.8 SE 4 6 1021.3 - 0.0 - - - - - - -
03/01:00am 15.7 SSE 3 7 1021.2 - 0.0 - - - - - - -
03/12:30am 15.8 SE 3 5 1021.1 - 0.0 - - - - - - -
03/12:00am 16.1 SSE 3 5 1021.2 - 0.0 - - - - - - -
 
Date/Time
WST
Temp

°C
Wind Pressure Rain
since 9am
mm
Weather Cloud Vis
km
Sea
Height
m
Swell
Dir
 
Speed
knots
Gust
knots
hPa Trend Height
m
Period
s
Dir
02/11:30pm 16.8 SSE 3 4 1021.2 - 0.0 - - - - - - -
02/11:00pm 16.9 S 3 5 1021.1 - 0.0 - - - - - - -
02/10:30pm 17.0 S 3 5 1021.1 - 0.0 - - - - - - -
02/10:00pm 17.1 S 3 4 1021.2 - 0.0 - - - - - - -
02/09:30pm 17.4 S 3 4 1021.1 - 0.0 - - - - - - -
02/09:00pm 17.4 SW 1 2 1020.9 - 0.0 - - - - - - -
02/08:30pm 17.8 SW 2 3 1020.9 - 0.0 - - - - - - -
02/08:00pm 18.1 SW 2 3 1020.9 - 0.0 - - - - - - -
02/07:30pm 18.8 SW 5 7 1020.9 - 0.0 - - - - - - -
02/07:00pm 19.1 S 2 4 1021.0 - 0.0 - - - - - - -
02/06:30pm 19.2 SSW 3 6 1020.8 - 0.0 - - - - - - -
02/06:00pm 19.2 SW 5 8 1020.4 - 0.0 - - - - - - -
02/05:30pm 19.3 SW 4 7 1020.3 - 0.0 - - - - - - -
02/05:00pm 19.6 SSW 6 9 1020.3 - 0.0 - - - - - - -
02/04:30pm 19.7 SW 8 11 1020.1 - 0.0 - - - - - - -
02/04:00pm 19.8 SW 8 12 1020.0 - 0.0 - - - - - - -
02/03:30pm 20.4 SW 7 11 1019.9 - 0.0 - - - - - - -
02/03:00pm 20.4 SW 8 13 1020.0 - 0.0 - - - - - - -
02/02:30pm 20.7 SW 8 12 1020.1 - 0.0 - - - - - - -
02/02:00pm 20.7 WSW 9 13 1020.2 - 0.0 - - - - - - -
02/01:30pm 21.4 SW 9 14 1020.3 - 0.0 - - - - - - -
02/01:00pm 21.7 WSW 8 13 1020.4 - 0.0 - - - - - - -
02/12:30pm 21.4 WSW 8 12 1020.8 - 0.0 - - - - - - -
02/12:00pm 21.3 W 5 7 1021.1 - 0.0 - - - - - - -
02/11:30am 20.2 NW 5 6 1021.3 - 0.0 - - - - - - -
02/11:00am 20.8 NW 5 6 1021.5 - 0.0 - - - - - - -
02/10:30am 19.3 WNW 5 7 1021.6 - 0.0 - - - - - - -
02/10:00am 18.2 NNW 3 5 1021.7 - 0.0 - - - - - - -
02/09:30am 17.5 SE 2 4 1022.0 - 0.0 - - - - - - -
02/09:00am 16.9 SE 4 7 1022.0 - 0.0 - - - - - - -
02/08:30am 16.7 NNE 4 6 1021.7 - 0.0 - - - - - - -
02/08:00am 15.9 NNE 5 7 1021.6 - 0.0 - - - - - - -
02/07:30am 15.5 NNE 5 7 1021.4 - 0.0 - - - - - - -
02/07:00am 15.2 NNE 6 7 1021.2 - 0.0 - - - - - - -
02/06:30am 14.9 NNE 6 7 1020.9 - 0.0 - - - - - - -
02/06:00am 14.9 NNE 8 10 1020.8 - 0.0 - - - - - - -
02/05:30am 14.4 NNE 9 10 1020.6 - 0.0 - - - - - - -
02/05:00am 13.2 NE 2 4 1020.7 - 0.0 - - - - - - -
02/04:30am 13.0 NE 2 4 1020.4 - 0.0 - - - - - - -
02/04:00am 12.4 NE 1 2 1020.3 - 0.0 - - - - - - -
02/03:30am 12.4 NE 1 2 1020.4 - 0.0 - - - - - - -

Other Formats:

Comma delimited format used in spreadsheet applications
http://www.bom.gov.au/fwo/IDW60701/IDW60701.94605.axf

JavaScript Object Notation format (JSON) in row-major order
http://www.bom.gov.au/fwo/IDW60701/IDW60701.94605.json